sensor_id;sensor_type;location;lat;lon;timestamp;temperature;humidity
21823;DHT22;11074;48.596;9.238;2023-03-19T00:00:06;10.60;99.90
21823;DHT22;11074;48.596;9.238;2023-03-19T00:02:33;10.50;99.90
21823;DHT22;11074;48.596;9.238;2023-03-19T00:04:59;10.50;99.90
21823;DHT22;11074;48.596;9.238;2023-03-19T00:07:25;10.50;99.90
21823;DHT22;11074;48.596;9.238;2023-03-19T00:09:51;10.50;99.90
21823;DHT22;11074;48.596;9.238;2023-03-19T00:12:17;10.50;99.90
21823;DHT22;11074;48.596;9.238;2023-03-19T00:14:42;10.60;99.90
21823;DHT22;11074;48.596;9.238;2023-03-19T00:17:08;10.50;99.90
21823;DHT22;11074;48.596;9.238;2023-03-19T00:19:34;10.50;99.90
21823;DHT22;11074;48.596;9.238;2023-03-19T00:22:00;10.50;99.90
21823;DHT22;11074;48.596;9.238;2023-03-19T00:24:26;10.40;99.90
21823;DHT22;11074;48.596;9.238;2023-03-19T00:26:51;10.30;99.90
21823;DHT22;11074;48.596;9.238;2023-03-19T00:29:17;10.30;99.90
21823;DHT22;11074;48.596;9.238;2023-03-19T00:31:43;10.30;99.90
21823;DHT22;11074;48.596;9.238;2023-03-19T00:34:09;10.30;99.90
21823;DHT22;11074;48.596;9.238;2023-03-19T00:36:36;10.30;99.90
21823;DHT22;11074;48.596;9.238;2023-03-19T00:39:02;10.30;99.90
21823;DHT22;11074;48.596;9.238;2023-03-19T00:41:29;10.30;99.90
21823;DHT22;11074;48.596;9.238;2023-03-19T00:43:56;10.30;99.90
21823;DHT22;11074;48.596;9.238;2023-03-19T00:46:24;10.30;99.90
21823;DHT22;11074;48.596;9.238;2023-03-19T00:48:51;10.20;99.90
21823;DHT22;11074;48.596;9.238;2023-03-19T00:51:20;10.20;99.90
21823;DHT22;11074;48.596;9.238;2023-03-19T00:53:47;10.30;99.90
21823;DHT22;11074;48.596;9.238;2023-03-19T00:56:14;10.30;99.90
21823;DHT22;11074;48.596;9.238;2023-03-19T00:58:42;10.30;99.90
21823;DHT22;11074;48.596;9.238;2023-03-19T01:01:11;10.20;99.90
21823;DHT22;11074;48.596;9.238;2023-03-19T01:03:38;10.30;99.90
21823;DHT22;11074;48.596;9.238;2023-03-19T01:06:05;10.30;99.90
21823;DHT22;11074;48.596;9.238;2023-03-19T01:08:31;10.30;99.90
21823;DHT22;11074;48.596;9.238;2023-03-19T01:11:13;10.30;99.90
21823;DHT22;11074;48.596;9.238;2023-03-19T01:13:39;10.30;99.90
21823;DHT22;11074;48.596;9.238;2023-03-19T01:16:07;10.30;99.90
21823;DHT22;11074;48.596;9.238;2023-03-19T01:18:33;10.40;99.90
21823;DHT22;11074;48.596;9.238;2023-03-19T01:20:58;10.30;99.90
21823;DHT22;11074;48.596;9.238;2023-03-19T01:23:25;10.40;99.90
21823;DHT22;11074;48.596;9.238;2023-03-19T01:25:51;10.40;99.90
21823;DHT22;11074;48.596;9.238;2023-03-19T01:28:17;10.40;99.90
21823;DHT22;11074;48.596;9.238;2023-03-19T01:30:43;10.40;99.90
21823;DHT22;11074;48.596;9.238;2023-03-19T01:33:09;10.40;99.90
21823;DHT22;11074;48.596;9.238;2023-03-19T01:35:34;10.30;99.90
21823;DHT22;11074;48.596;9.238;2023-03-19T01:38:00;10.30;99.90
21823;DHT22;11074;48.596;9.238;2023-03-19T01:40:26;10.30;99.90
21823;DHT22;11074;48.596;9.238;2023-03-19T01:42:56;10.30;99.90
21823;DHT22;11074;48.596;9.238;2023-03-19T01:45:39;10.30;99.90
21823;DHT22;11074;48.596;9.238;2023-03-19T01:51:16;10.30;99.90
21823;DHT22;11074;48.596;9.238;2023-03-19T01:53:50;10.30;99.90
21823;DHT22;11074;48.596;9.238;2023-03-19T01:56:24;10.30;99.90
21823;DHT22;11074;48.596;9.238;2023-03-19T01:58:56;10.30;99.90
21823;DHT22;11074;48.596;9.238;2023-03-19T02:01:26;10.30;99.90
21823;DHT22;11074;48.596;9.238;2023-03-19T02:03:56;10.30;99.90
21823;DHT22;11074;48.596;9.238;2023-03-19T02:06:24;10.30;99.90
21823;DHT22;11074;48.596;9.238;2023-03-19T02:08:50;10.30;99.90
21823;DHT22;11074;48.596;9.238;2023-03-19T02:11:17;10.30;99.90
21823;DHT22;11074;48.596;9.238;2023-03-19T02:13:44;10.30;99.90
21823;DHT22;11074;48.596;9.238;2023-03-19T02:16:10;10.20;99.90
21823;DHT22;11074;48.596;9.238;2023-03-19T02:18:36;10.20;99.90
21823;DHT22;11074;48.596;9.238;2023-03-19T02:21:13;10.20;99.90
21823;DHT22;11074;48.596;9.238;2023-03-19T02:24:03;10.20;99.90
21823;DHT22;11074;48.596;9.238;2023-03-19T02:26:37;10.20;99.90
21823;DHT22;11074;48.596;9.238;2023-03-19T02:29:04;10.30;99.90
21823;DHT22;11074;48.596;9.238;2023-03-19T02:31:30;10.30;99.90
21823;DHT22;11074;48.596;9.238;2023-03-19T02:34:01;10.30;99.90
21823;DHT22;11074;48.596;9.238;2023-03-19T02:36:37;10.30;99.90
21823;DHT22;11074;48.596;9.238;2023-03-19T02:39:20;10.20;99.90
21823;DHT22;11074;48.596;9.238;2023-03-19T02:41:52;10.20;99.90
21823;DHT22;11074;48.596;9.238;2023-03-19T02:44:19;10.20;99.90
21823;DHT22;11074;48.596;9.238;2023-03-19T02:46:45;10.20;99.90
21823;DHT22;11074;48.596;9.238;2023-03-19T02:49:11;10.20;99.90
21823;DHT22;11074;48.596;9.238;2023-03-19T02:51:36;10.20;99.90
21823;DHT22;11074;48.596;9.238;2023-03-19T02:54:03;10.20;99.90
21823;DHT22;11074;48.596;9.238;2023-03-19T02:56:30;10.20;99.90
21823;DHT22;11074;48.596;9.238;2023-03-19T02:58:56;10.20;99.90
21823;DHT22;11074;48.596;9.238;2023-03-19T03:01:21;10.10;99.90
21823;DHT22;11074;48.596;9.238;2023-03-19T03:03:47;10.10;99.90
21823;DHT22;11074;48.596;9.238;2023-03-19T03:06:13;9.90;99.90
21823;DHT22;11074;48.596;9.238;2023-03-19T03:08:38;9.90;99.90
21823;DHT22;11074;48.596;9.238;2023-03-19T03:11:04;9.80;99.90
21823;DHT22;11074;48.596;9.238;2023-03-19T03:13:30;9.80;99.90
21823;DHT22;11074;48.596;9.238;2023-03-19T03:15:56;9.80;99.90
21823;DHT22;11074;48.596;9.238;2023-03-19T03:18:22;9.80;99.90
21823;DHT22;11074;48.596;9.238;2023-03-19T03:20:48;9.80;99.90
21823;DHT22;11074;48.596;9.238;2023-03-19T03:23:13;9.80;99.90
21823;DHT22;11074;48.596;9.238;2023-03-19T03:25:39;9.80;99.90
21823;DHT22;11074;48.596;9.238;2023-03-19T03:28:05;9.80;99.90
21823;DHT22;11074;48.596;9.238;2023-03-19T03:30:31;9.80;99.90
21823;DHT22;11074;48.596;9.238;2023-03-19T03:32:56;9.80;99.90
21823;DHT22;11074;48.596;9.238;2023-03-19T03:35:22;9.80;99.90
21823;DHT22;11074;48.596;9.238;2023-03-19T03:37:49;9.80;99.90
21823;DHT22;11074;48.596;9.238;2023-03-19T03:40:16;9.70;99.90
21823;DHT22;11074;48.596;9.238;2023-03-19T03:42:43;9.70;99.90
21823;DHT22;11074;48.596;9.238;2023-03-19T03:45:09;9.70;99.90
21823;DHT22;11074;48.596;9.238;2023-03-19T03:47:36;9.80;99.90
21823;DHT22;11074;48.596;9.238;2023-03-19T03:50:02;9.80;99.90
21823;DHT22;11074;48.596;9.238;2023-03-19T03:52:30;9.80;99.90
21823;DHT22;11074;48.596;9.238;2023-03-19T03:54:58;9.80;99.90
21823;DHT22;11074;48.596;9.238;2023-03-19T03:57:24;9.80;99.90
21823;DHT22;11074;48.596;9.238;2023-03-19T03:59:52;9.90;99.90
21823;DHT22;11074;48.596;9.238;2023-03-19T04:02:18;9.90;99.90
21823;DHT22;11074;48.596;9.238;2023-03-19T04:04:43;9.90;99.90
21823;DHT22;11074;48.596;9.238;2023-03-19T04:07:09;9.80;99.90
21823;DHT22;11074;48.596;9.238;2023-03-19T04:09:35;9.90;99.90
21823;DHT22;11074;48.596;9.238;2023-03-19T04:12:01;9.90;99.90
21823;DHT22;11074;48.596;9.238;2023-03-19T04:14:27;9.80;99.90
21823;DHT22;11074;48.596;9.238;2023-03-19T04:16:53;9.80;99.90
21823;DHT22;11074;48.596;9.238;2023-03-19T04:19:19;9.80;99.90
21823;DHT22;11074;48.596;9.238;2023-03-19T04:21:45;9.80;99.90
21823;DHT22;11074;48.596;9.238;2023-03-19T04:24:11;9.80;99.90
21823;DHT22;11074;48.596;9.238;2023-03-19T04:26:38;9.70;99.90
21823;DHT22;11074;48.596;9.238;2023-03-19T04:29:05;9.70;99.90
21823;DHT22;11074;48.596;9.238;2023-03-19T04:31:32;9.70;99.90
21823;DHT22;11074;48.596;9.238;2023-03-19T04:33:58;9.70;99.90
21823;DHT22;11074;48.596;9.238;2023-03-19T04:36:24;9.70;99.90
21823;DHT22;11074;48.596;9.238;2023-03-19T04:38:50;9.70;99.90
21823;DHT22;11074;48.596;9.238;2023-03-19T04:41:16;9.70;99.90
21823;DHT22;11074;48.596;9.238;2023-03-19T04:43:42;9.70;99.90
21823;DHT22;11074;48.596;9.238;2023-03-19T04:46:08;9.70;99.90
21823;DHT22;11074;48.596;9.238;2023-03-19T04:48:34;9.80;99.90
21823;DHT22;11074;48.596;9.238;2023-03-19T04:51:01;9.70;99.90
21823;DHT22;11074;48.596;9.238;2023-03-19T04:53:28;9.80;99.90
21823;DHT22;11074;48.596;9.238;2023-03-19T04:55:54;9.80;99.90
21823;DHT22;11074;48.596;9.238;2023-03-19T04:58:21;9.80;99.90
21823;DHT22;11074;48.596;9.238;2023-03-19T05:00:46;9.80;99.90
21823;DHT22;11074;48.596;9.238;2023-03-19T05:03:13;9.80;99.90
21823;DHT22;11074;48.596;9.238;2023-03-19T05:05:40;9.80;99.90
21823;DHT22;11074;48.596;9.238;2023-03-19T05:08:08;9.80;99.90
21823;DHT22;11074;48.596;9.238;2023-03-19T05:10:35;9.80;99.90
21823;DHT22;11074;48.596;9.238;2023-03-19T05:13:02;9.80;99.90
21823;DHT22;11074;48.596;9.238;2023-03-19T05:15:29;9.80;99.90
21823;DHT22;11074;48.596;9.238;2023-03-19T05:17:55;9.80;99.90
21823;DHT22;11074;48.596;9.238;2023-03-19T05:20:21;9.80;99.90
21823;DHT22;11074;48.596;9.238;2023-03-19T05:22:48;9.80;99.90
21823;DHT22;11074;48.596;9.238;2023-03-19T05:25:13;9.80;99.90
21823;DHT22;11074;48.596;9.238;2023-03-19T05:27:39;9.80;99.90
21823;DHT22;11074;48.596;9.238;2023-03-19T05:30:06;9.80;99.90
21823;DHT22;11074;48.596;9.238;2023-03-19T05:32:33;9.80;99.90
21823;DHT22;11074;48.596;9.238;2023-03-19T05:34:58;9.80;99.90
21823;DHT22;11074;48.596;9.238;2023-03-19T05:37:24;9.70;99.90
21823;DHT22;11074;48.596;9.238;2023-03-19T05:39:50;9.70;99.90
21823;DHT22;11074;48.596;9.238;2023-03-19T05:42:16;9.60;99.90
21823;DHT22;11074;48.596;9.238;2023-03-19T05:44:42;9.60;99.90
21823;DHT22;11074;48.596;9.238;2023-03-19T05:47:09;9.60;99.90
21823;DHT22;11074;48.596;9.238;2023-03-19T05:49:36;9.70;99.90
21823;DHT22;11074;48.596;9.238;2023-03-19T05:52:03;9.70;99.90
21823;DHT22;11074;48.596;9.238;2023-03-19T05:54:28;9.70;99.90
21823;DHT22;11074;48.596;9.238;2023-03-19T05:56:54;9.70;99.90
21823;DHT22;11074;48.596;9.238;2023-03-19T05:59:20;9.70;99.90
21823;DHT22;11074;48.596;9.238;2023-03-19T06:01:46;9.70;99.90
21823;DHT22;11074;48.596;9.238;2023-03-19T06:04:12;9.70;99.90
21823;DHT22;11074;48.596;9.238;2023-03-19T06:06:38;9.70;99.90
21823;DHT22;11074;48.596;9.238;2023-03-19T06:09:04;9.70;99.90
21823;DHT22;11074;48.596;9.238;2023-03-19T06:11:29;9.60;99.90
21823;DHT22;11074;48.596;9.238;2023-03-19T06:13:56;9.70;99.90
21823;DHT22;11074;48.596;9.238;2023-03-19T06:16:23;9.70;99.90
21823;DHT22;11074;48.596;9.238;2023-03-19T06:18:48;9.70;99.90
21823;DHT22;11074;48.596;9.238;2023-03-19T06:21:14;9.70;99.90
21823;DHT22;11074;48.596;9.238;2023-03-19T06:23:40;9.80;99.90
21823;DHT22;11074;48.596;9.238;2023-03-19T06:26:06;9.80;99.90
21823;DHT22;11074;48.596;9.238;2023-03-19T06:28:31;9.80;99.90
21823;DHT22;11074;48.596;9.238;2023-03-19T06:30:57;9.80;99.90
21823;DHT22;11074;48.596;9.238;2023-03-19T06:33:23;9.80;99.90
21823;DHT22;11074;48.596;9.238;2023-03-19T06:35:52;9.80;99.90
21823;DHT22;11074;48.596;9.238;2023-03-19T06:38:18;9.90;99.90
21823;DHT22;11074;48.596;9.238;2023-03-19T06:40:44;9.90;99.90
21823;DHT22;11074;48.596;9.238;2023-03-19T06:43:09;9.90;99.90
21823;DHT22;11074;48.596;9.238;2023-03-19T06:45:35;10.00;99.90
21823;DHT22;11074;48.596;9.238;2023-03-19T06:48:01;10.00;99.90
21823;DHT22;11074;48.596;9.238;2023-03-19T06:50:27;10.10;99.90
21823;DHT22;11074;48.596;9.238;2023-03-19T06:52:52;10.00;99.90
21823;DHT22;11074;48.596;9.238;2023-03-19T06:55:18;10.00;99.90
21823;DHT22;11074;48.596;9.238;2023-03-19T06:57:47;10.00;99.90
21823;DHT22;11074;48.596;9.238;2023-03-19T07:00:16;10.00;99.90
21823;DHT22;11074;48.596;9.238;2023-03-19T07:02:43;10.00;99.90
21823;DHT22;11074;48.596;9.238;2023-03-19T07:05:09;10.00;99.90
21823;DHT22;11074;48.596;9.238;2023-03-19T07:07:35;10.10;99.90
21823;DHT22;11074;48.596;9.238;2023-03-19T07:10:01;10.10;99.90
21823;DHT22;11074;48.596;9.238;2023-03-19T07:12:26;10.10;99.90
21823;DHT22;11074;48.596;9.238;2023-03-19T07:14:53;10.20;99.90
21823;DHT22;11074;48.596;9.238;2023-03-19T07:17:21;10.20;99.90
21823;DHT22;11074;48.596;9.238;2023-03-19T07:19:47;10.20;99.90
21823;DHT22;11074;48.596;9.238;2023-03-19T07:22:13;10.30;99.90
21823;DHT22;11074;48.596;9.238;2023-03-19T07:24:39;10.30;99.90
21823;DHT22;11074;48.596;9.238;2023-03-19T07:27:05;10.30;99.90
21823;DHT22;11074;48.596;9.238;2023-03-19T07:29:31;10.30;99.90
21823;DHT22;11074;48.596;9.238;2023-03-19T07:31:57;10.20;99.90
21823;DHT22;11074;48.596;9.238;2023-03-19T07:34:22;10.20;99.90
21823;DHT22;11074;48.596;9.238;2023-03-19T07:36:48;10.30;99.90
21823;DHT22;11074;48.596;9.238;2023-03-19T07:39:14;10.30;99.90
21823;DHT22;11074;48.596;9.238;2023-03-19T07:41:39;10.30;99.90
21823;DHT22;11074;48.596;9.238;2023-03-19T07:44:05;10.30;99.90
21823;DHT22;11074;48.596;9.238;2023-03-19T07:46:31;10.40;99.90
21823;DHT22;11074;48.596;9.238;2023-03-19T07:48:57;10.50;99.90
21823;DHT22;11074;48.596;9.238;2023-03-19T07:51:22;10.50;99.90
21823;DHT22;11074;48.596;9.238;2023-03-19T07:53:48;10.60;99.90
21823;DHT22;11074;48.596;9.238;2023-03-19T07:56:14;10.70;99.90
21823;DHT22;11074;48.596;9.238;2023-03-19T07:58:40;10.70;99.90
21823;DHT22;11074;48.596;9.238;2023-03-19T08:01:06;10.80;99.90
21823;DHT22;11074;48.596;9.238;2023-03-19T08:03:32;10.80;99.90
21823;DHT22;11074;48.596;9.238;2023-03-19T08:05:58;10.90;99.90
21823;DHT22;11074;48.596;9.238;2023-03-19T08:08:24;11.00;99.90
21823;DHT22;11074;48.596;9.238;2023-03-19T08:10:52;11.00;99.90
21823;DHT22;11074;48.596;9.238;2023-03-19T08:13:19;11.00;99.90
21823;DHT22;11074;48.596;9.238;2023-03-19T08:15:44;11.10;99.90
21823;DHT22;11074;48.596;9.238;2023-03-19T08:18:10;11.10;99.90
21823;DHT22;11074;48.596;9.238;2023-03-19T08:20:36;11.10;99.90
21823;DHT22;11074;48.596;9.238;2023-03-19T08:23:02;11.20;99.90
21823;DHT22;11074;48.596;9.238;2023-03-19T08:25:28;11.20;99.90
21823;DHT22;11074;48.596;9.238;2023-03-19T08:27:57;11.30;99.90
21823;DHT22;11074;48.596;9.238;2023-03-19T08:30:24;11.40;99.90
21823;DHT22;11074;48.596;9.238;2023-03-19T08:32:50;11.50;99.90
21823;DHT22;11074;48.596;9.238;2023-03-19T08:35:16;11.60;99.90
21823;DHT22;11074;48.596;9.238;2023-03-19T08:37:42;11.60;99.90
21823;DHT22;11074;48.596;9.238;2023-03-19T08:40:08;11.70;99.90
21823;DHT22;11074;48.596;9.238;2023-03-19T08:42:35;11.70;99.90
21823;DHT22;11074;48.596;9.238;2023-03-19T08:45:03;11.80;99.90
21823;DHT22;11074;48.596;9.238;2023-03-19T08:47:29;11.90;99.90
21823;DHT22;11074;48.596;9.238;2023-03-19T08:49:55;11.90;99.90
21823;DHT22;11074;48.596;9.238;2023-03-19T08:52:21;12.00;99.90
21823;DHT22;11074;48.596;9.238;2023-03-19T08:54:46;12.10;99.90
21823;DHT22;11074;48.596;9.238;2023-03-19T08:57:12;12.10;99.90
21823;DHT22;11074;48.596;9.238;2023-03-19T08:59:38;12.20;99.90
21823;DHT22;11074;48.596;9.238;2023-03-19T09:02:03;12.20;99.90
21823;DHT22;11074;48.596;9.238;2023-03-19T09:04:29;12.30;99.90
21823;DHT22;11074;48.596;9.238;2023-03-19T09:06:55;12.30;99.90
21823;DHT22;11074;48.596;9.238;2023-03-19T09:09:22;12.40;99.90
21823;DHT22;11074;48.596;9.238;2023-03-19T09:11:49;12.50;99.90
21823;DHT22;11074;48.596;9.238;2023-03-19T09:14:15;12.60;99.90
21823;DHT22;11074;48.596;9.238;2023-03-19T09:16:42;12.70;99.90
21823;DHT22;11074;48.596;9.238;2023-03-19T09:19:08;12.80;99.90
21823;DHT22;11074;48.596;9.238;2023-03-19T09:21:35;12.90;99.90
21823;DHT22;11074;48.596;9.238;2023-03-19T09:24:01;13.00;99.90
21823;DHT22;11074;48.596;9.238;2023-03-19T09:26:28;13.00;99.90
21823;DHT22;11074;48.596;9.238;2023-03-19T09:28:54;13.00;99.90
21823;DHT22;11074;48.596;9.238;2023-03-19T09:31:20;13.00;99.90
21823;DHT22;11074;48.596;9.238;2023-03-19T09:33:46;13.00;99.90
21823;DHT22;11074;48.596;9.238;2023-03-19T09:36:11;12.90;99.90
21823;DHT22;11074;48.596;9.238;2023-03-19T09:38:37;13.00;99.90
21823;DHT22;11074;48.596;9.238;2023-03-19T09:41:06;13.10;99.90
21823;DHT22;11074;48.596;9.238;2023-03-19T09:44:02;13.30;99.90
21823;DHT22;11074;48.596;9.238;2023-03-19T09:46:45;13.40;99.90
21823;DHT22;11074;48.596;9.238;2023-03-19T09:52:44;13.80;99.90
21823;DHT22;11074;48.596;9.238;2023-03-19T09:57:48;14.20;99.90
21823;DHT22;11074;48.596;9.238;2023-03-19T10:00:25;14.30;99.90
21823;DHT22;11074;48.596;9.238;2023-03-19T10:03:02;14.50;99.90
21823;DHT22;11074;48.596;9.238;2023-03-19T10:11:14;15.00;99.90
21823;DHT22;11074;48.596;9.238;2023-03-19T10:16:50;14.80;99.90
21823;DHT22;11074;48.596;9.238;2023-03-19T10:22:33;14.60;99.90
21823;DHT22;11074;48.596;9.238;2023-03-19T10:25:09;14.60;99.90
21823;DHT22;11074;48.596;9.238;2023-03-19T10:27:44;14.70;99.90
21823;DHT22;11074;48.596;9.238;2023-03-19T10:30:16;14.70;99.90
21823;DHT22;11074;48.596;9.238;2023-03-19T10:32:45;14.90;99.90
21823;DHT22;11074;48.596;9.238;2023-03-19T10:35:22;15.00;99.90
21823;DHT22;11074;48.596;9.238;2023-03-19T10:38:14;15.00;99.90
21823;DHT22;11074;48.596;9.238;2023-03-19T10:41:15;15.00;99.90
21823;DHT22;11074;48.596;9.238;2023-03-19T10:43:39;15.10;99.90
21823;DHT22;11074;48.596;9.238;2023-03-19T10:46:11;15.10;99.90
21823;DHT22;11074;48.596;9.238;2023-03-19T10:48:43;15.20;99.90
21823;DHT22;11074;48.596;9.238;2023-03-19T10:51:13;15.30;99.90
21823;DHT22;11074;48.596;9.238;2023-03-19T10:53:43;15.30;99.90
21823;DHT22;11074;48.596;9.238;2023-03-19T10:56:24;15.40;99.90
21823;DHT22;11074;48.596;9.238;2023-03-19T10:58:56;15.40;99.90
21823;DHT22;11074;48.596;9.238;2023-03-19T11:01:38;15.50;99.90
21823;DHT22;11074;48.596;9.238;2023-03-19T11:04:16;15.60;99.90
21823;DHT22;11074;48.596;9.238;2023-03-19T11:06:52;15.70;99.90
21823;DHT22;11074;48.596;9.238;2023-03-19T11:12:06;16.00;99.90
21823;DHT22;11074;48.596;9.238;2023-03-19T11:14:55;16.20;99.90
21823;DHT22;11074;48.596;9.238;2023-03-19T11:17:35;16.20;99.90
21823;DHT22;11074;48.596;9.238;2023-03-19T11:20:17;16.10;99.90
21823;DHT22;11074;48.596;9.238;2023-03-19T11:23:01;16.00;99.90
21823;DHT22;11074;48.596;9.238;2023-03-19T11:25:41;15.90;99.90
21823;DHT22;11074;48.596;9.238;2023-03-19T11:28:14;16.10;99.90
21823;DHT22;11074;48.596;9.238;2023-03-19T11:42:51;16.80;99.90
21823;DHT22;11074;48.596;9.238;2023-03-19T11:45:45;16.90;99.90
21823;DHT22;11074;48.596;9.238;2023-03-19T11:48:38;16.90;99.90
21823;DHT22;11074;48.596;9.238;2023-03-19T11:51:29;16.80;99.90
21823;DHT22;11074;48.596;9.238;2023-03-19T11:57:08;17.10;99.90
21823;DHT22;11074;48.596;9.238;2023-03-19T11:59:54;17.60;99.90
21823;DHT22;11074;48.596;9.238;2023-03-19T12:05:30;17.70;99.90
21823;DHT22;11074;48.596;9.238;2023-03-19T12:11:22;17.80;99.90
21823;DHT22;11074;48.596;9.238;2023-03-19T12:20:00;17.70;99.90
21823;DHT22;11074;48.596;9.238;2023-03-19T12:28:34;17.10;99.90
21823;DHT22;11074;48.596;9.238;2023-03-19T12:36:18;17.70;99.90
21823;DHT22;11074;48.596;9.238;2023-03-19T12:39:00;18.00;99.90
21823;DHT22;11074;48.596;9.238;2023-03-19T12:41:30;18.40;99.90
21823;DHT22;11074;48.596;9.238;2023-03-19T12:46:43;18.70;99.90
21823;DHT22;11074;48.596;9.238;2023-03-19T12:49:20;18.60;99.90
21823;DHT22;11074;48.596;9.238;2023-03-19T12:51:59;18.40;99.90
21823;DHT22;11074;48.596;9.238;2023-03-19T12:54:37;18.00;99.90
21823;DHT22;11074;48.596;9.238;2023-03-19T12:57:16;17.70;99.90
21823;DHT22;11074;48.596;9.238;2023-03-19T13:00:09;17.50;99.90
21823;DHT22;11074;48.596;9.238;2023-03-19T13:02:56;17.50;99.90
21823;DHT22;11074;48.596;9.238;2023-03-19T13:08:26;17.30;99.90
21823;DHT22;11074;48.596;9.238;2023-03-19T13:10:58;17.50;99.90
21823;DHT22;11074;48.596;9.238;2023-03-19T13:22:05;17.90;99.90
21823;DHT22;11074;48.596;9.238;2023-03-19T13:24:37;17.70;99.90
21823;DHT22;11074;48.596;9.238;2023-03-19T13:27:12;17.50;99.90
21823;DHT22;11074;48.596;9.238;2023-03-19T13:38:20;17.20;99.90
21823;DHT22;11074;48.596;9.238;2023-03-19T13:40:55;17.20;99.90
21823;DHT22;11074;48.596;9.238;2023-03-19T13:48:37;17.50;99.90
21823;DHT22;11074;48.596;9.238;2023-03-19T13:53:53;17.50;99.90
21823;DHT22;11074;48.596;9.238;2023-03-19T13:56:20;17.50;99.90
21823;DHT22;11074;48.596;9.238;2023-03-19T13:59:17;17.40;99.90
21823;DHT22;11074;48.596;9.238;2023-03-19T14:01:48;17.30;99.90
21823;DHT22;11074;48.596;9.238;2023-03-19T14:04:16;17.10;99.90
21823;DHT22;11074;48.596;9.238;2023-03-19T14:06:56;17.00;99.90
21823;DHT22;11074;48.596;9.238;2023-03-19T14:09:30;16.90;99.90
21823;DHT22;11074;48.596;9.238;2023-03-19T14:17:27;16.40;99.90
21823;DHT22;11074;48.596;9.238;2023-03-19T14:31:51;15.80;99.90
21823;DHT22;11074;48.596;9.238;2023-03-19T14:34:26;15.70;99.90
21823;DHT22;11074;48.596;9.238;2023-03-19T14:39:31;15.00;99.90
21823;DHT22;11074;48.596;9.238;2023-03-19T14:42:23;14.50;99.90
21823;DHT22;11074;48.596;9.238;2023-03-19T14:48:02;14.70;99.90
21823;DHT22;11074;48.596;9.238;2023-03-19T14:54:03;15.10;99.90
21823;DHT22;11074;48.596;9.238;2023-03-19T14:56:36;15.10;99.90
21823;DHT22;11074;48.596;9.238;2023-03-19T14:59:02;15.50;99.90
21823;DHT22;11074;48.596;9.238;2023-03-19T15:01:33;15.40;99.90
21823;DHT22;11074;48.596;9.238;2023-03-19T15:04:09;15.40;99.90
21823;DHT22;11074;48.596;9.238;2023-03-19T15:06:41;15.50;99.90
21823;DHT22;11074;48.596;9.238;2023-03-19T15:09:17;15.40;99.90
21823;DHT22;11074;48.596;9.238;2023-03-19T15:15:33;15.10;99.90
21823;DHT22;11074;48.596;9.238;2023-03-19T15:18:08;14.90;99.90
21823;DHT22;11074;48.596;9.238;2023-03-19T15:20:43;14.80;99.90
21823;DHT22;11074;48.596;9.238;2023-03-19T15:23:13;14.70;99.90
21823;DHT22;11074;48.596;9.238;2023-03-19T15:25:48;14.60;99.90
21823;DHT22;11074;48.596;9.238;2023-03-19T15:28:17;14.60;99.90
21823;DHT22;11074;48.596;9.238;2023-03-19T15:30:44;14.50;99.90
21823;DHT22;11074;48.596;9.238;2023-03-19T15:33:21;14.60;99.90
21823;DHT22;11074;48.596;9.238;2023-03-19T15:36:10;14.70;99.90
21823;DHT22;11074;48.596;9.238;2023-03-19T15:41:17;14.80;99.90
21823;DHT22;11074;48.596;9.238;2023-03-19T15:43:45;14.90;99.90
21823;DHT22;11074;48.596;9.238;2023-03-19T15:46:18;14.90;99.90
21823;DHT22;11074;48.596;9.238;2023-03-19T15:49:04;14.80;99.90
21823;DHT22;11074;48.596;9.238;2023-03-19T15:51:35;14.80;99.90
21823;DHT22;11074;48.596;9.238;2023-03-19T15:54:02;14.80;99.90
21823;DHT22;11074;48.596;9.238;2023-03-19T15:56:29;14.70;99.90
21823;DHT22;11074;48.596;9.238;2023-03-19T15:58:57;14.70;99.90
21823;DHT22;11074;48.596;9.238;2023-03-19T16:01:25;14.60;99.90
21823;DHT22;11074;48.596;9.238;2023-03-19T16:04:18;14.60;99.90
21823;DHT22;11074;48.596;9.238;2023-03-19T16:06:48;14.50;99.90
21823;DHT22;11074;48.596;9.238;2023-03-19T16:09:24;14.50;99.90
21823;DHT22;11074;48.596;9.238;2023-03-19T16:11:57;14.50;99.90
21823;DHT22;11074;48.596;9.238;2023-03-19T16:14:36;14.60;99.90
21823;DHT22;11074;48.596;9.238;2023-03-19T16:17:12;14.80;99.90
21823;DHT22;11074;48.596;9.238;2023-03-19T16:19:55;15.10;99.90
21823;DHT22;11074;48.596;9.238;2023-03-19T16:22:30;15.20;99.90
21823;DHT22;11074;48.596;9.238;2023-03-19T16:24:57;15.10;99.90
21823;DHT22;11074;48.596;9.238;2023-03-19T16:27:37;15.10;99.90
21823;DHT22;11074;48.596;9.238;2023-03-19T16:30:20;15.00;99.90
21823;DHT22;11074;48.596;9.238;2023-03-19T16:33:02;14.90;99.90
21823;DHT22;11074;48.596;9.238;2023-03-19T16:35:32;14.70;99.90
21823;DHT22;11074;48.596;9.238;2023-03-19T16:40:46;14.60;99.90
21823;DHT22;11074;48.596;9.238;2023-03-19T16:43:22;14.50;99.90
21823;DHT22;11074;48.596;9.238;2023-03-19T16:45:48;14.50;99.90
21823;DHT22;11074;48.596;9.238;2023-03-19T16:48:16;14.60;99.90
21823;DHT22;11074;48.596;9.238;2023-03-19T16:50:42;14.50;99.90
21823;DHT22;11074;48.596;9.238;2023-03-19T16:53:25;14.50;99.90
21823;DHT22;11074;48.596;9.238;2023-03-19T16:55:54;14.50;99.90
21823;DHT22;11074;48.596;9.238;2023-03-19T16:58:30;14.40;99.90
21823;DHT22;11074;48.596;9.238;2023-03-19T17:00:59;14.30;99.90
21823;DHT22;11074;48.596;9.238;2023-03-19T17:03:25;14.10;99.90
21823;DHT22;11074;48.596;9.238;2023-03-19T17:05:54;14.00;99.90
21823;DHT22;11074;48.596;9.238;2023-03-19T17:08:21;13.90;99.90
21823;DHT22;11074;48.596;9.238;2023-03-19T17:10:50;13.70;99.90
21823;DHT22;11074;48.596;9.238;2023-03-19T17:13:21;13.70;99.90
21823;DHT22;11074;48.596;9.238;2023-03-19T17:15:54;13.70;99.90
21823;DHT22;11074;48.596;9.238;2023-03-19T17:18:29;13.50;99.90
21823;DHT22;11074;48.596;9.238;2023-03-19T17:21:13;13.40;99.90
21823;DHT22;11074;48.596;9.238;2023-03-19T17:23:43;13.40;99.90
21823;DHT22;11074;48.596;9.238;2023-03-19T17:26:16;13.20;99.90
21823;DHT22;11074;48.596;9.238;2023-03-19T17:28:44;13.20;99.90
21823;DHT22;11074;48.596;9.238;2023-03-19T17:31:30;13.20;99.90
21823;DHT22;11074;48.596;9.238;2023-03-19T17:34:01;13.10;99.90
21823;DHT22;11074;48.596;9.238;2023-03-19T17:36:29;13.10;99.90
21823;DHT22;11074;48.596;9.238;2023-03-19T17:38:55;13.00;99.90
21823;DHT22;11074;48.596;9.238;2023-03-19T17:41:21;13.00;99.90
21823;DHT22;11074;48.596;9.238;2023-03-19T17:43:47;13.00;99.90
21823;DHT22;11074;48.596;9.238;2023-03-19T17:46:19;12.90;99.90
21823;DHT22;11074;48.596;9.238;2023-03-19T17:48:48;12.90;99.90
21823;DHT22;11074;48.596;9.238;2023-03-19T17:51:14;12.90;99.90
21823;DHT22;11074;48.596;9.238;2023-03-19T17:53:43;12.90;99.90
21823;DHT22;11074;48.596;9.238;2023-03-19T17:56:21;12.80;99.90
21823;DHT22;11074;48.596;9.238;2023-03-19T17:58:50;12.80;99.90